sensor_id;sensor_type;location;lat;lon;timestamp;P1;durP1;ratioP1;P2;durP2;ratioP2
20697;SDS011;10508;50.956;4.640;2024-02-26T00:00:29;1.90;;;0.82;;
20697;SDS011;10508;50.956;4.640;2024-02-26T00:02:55;3.13;;;0.80;;
20697;SDS011;10508;50.956;4.640;2024-02-26T00:05:21;3.03;;;1.02;;
20697;SDS011;10508;50.956;4.640;2024-02-26T00:07:48;4.30;;;0.90;;
20697;SDS011;10508;50.956;4.640;2024-02-26T00:10:16;3.45;;;0.90;;
20697;SDS011;10508;50.956;4.640;2024-02-26T00:12:42;1.45;;;0.90;;
20697;SDS011;10508;50.956;4.640;2024-02-26T00:15:09;1.42;;;0.80;;
20697;SDS011;10508;50.956;4.640;2024-02-26T00:17:36;1.10;;;0.73;;
20697;SDS011;10508;50.956;4.640;2024-02-26T00:20:03;2.03;;;0.90;;
20697;SDS011;10508;50.956;4.640;2024-02-26T00:22:33;3.03;;;0.90;;
20697;SDS011;10508;50.956;4.640;2024-02-26T00:25:00;1.30;;;0.77;;
20697;SDS011;10508;50.956;4.640;2024-02-26T00:27:26;1.55;;;0.80;;
20697;SDS011;10508;50.956;4.640;2024-02-26T00:29:53;3.58;;;0.90;;
20697;SDS011;10508;50.956;4.640;2024-02-26T00:32:19;2.63;;;0.80;;
20697;SDS011;10508;50.956;4.640;2024-02-26T00:34:46;1.98;;;0.85;;
20697;SDS011;10508;50.956;4.640;2024-02-26T00:37:13;2.17;;;0.93;;
20697;SDS011;10508;50.956;4.640;2024-02-26T00:39:42;1.90;;;1.00;;
20697;SDS011;10508;50.956;4.640;2024-02-26T00:42:11;3.65;;;1.10;;
20697;SDS011;10508;50.956;4.640;2024-02-26T00:44:38;3.45;;;0.95;;
20697;SDS011;10508;50.956;4.640;2024-02-26T00:47:05;1.70;;;0.90;;
20697;SDS011;10508;50.956;4.640;2024-02-26T00:49:47;1.45;;;0.93;;
20697;SDS011;10508;50.956;4.640;2024-02-26T00:52:14;2.42;;;0.85;;
20697;SDS011;10508;50.956;4.640;2024-02-26T00:54:42;3.42;;;1.23;;
20697;SDS011;10508;50.956;4.640;2024-02-26T00:57:07;4.35;;;0.98;;
20697;SDS011;10508;50.956;4.640;2024-02-26T00:59:33;1.58;;;0.80;;
20697;SDS011;10508;50.956;4.640;2024-02-26T01:02:00;1.35;;;0.75;;
20697;SDS011;10508;50.956;4.640;2024-02-26T01:04:27;2.45;;;0.88;;
20697;SDS011;10508;50.956;4.640;2024-02-26T01:06:54;1.33;;;0.73;;
20697;SDS011;10508;50.956;4.640;2024-02-26T01:09:21;1.50;;;0.80;;
20697;SDS011;10508;50.956;4.640;2024-02-26T01:11:48;4.80;;;1.10;;
20697;SDS011;10508;50.956;4.640;2024-02-26T01:14:15;6.65;;;1.05;;
20697;SDS011;10508;50.956;4.640;2024-02-26T01:16:42;2.03;;;0.90;;
20697;SDS011;10508;50.956;4.640;2024-02-26T01:19:09;7.60;;;1.00;;
20697;SDS011;10508;50.956;4.640;2024-02-26T01:21:36;1.63;;;0.90;;
20697;SDS011;10508;50.956;4.640;2024-02-26T01:24:03;1.33;;;0.65;;
20697;SDS011;10508;50.956;4.640;2024-02-26T01:26:30;1.30;;;0.82;;
20697;SDS011;10508;50.956;4.640;2024-02-26T01:28:58;1.95;;;0.90;;
20697;SDS011;10508;50.956;4.640;2024-02-26T01:31:25;0.85;;;0.60;;
20697;SDS011;10508;50.956;4.640;2024-02-26T01:33:52;2.15;;;0.80;;
20697;SDS011;10508;50.956;4.640;2024-02-26T01:36:19;2.75;;;0.77;;
20697;SDS011;10508;50.956;4.640;2024-02-26T01:38:46;1.75;;;0.82;;
20697;SDS011;10508;50.956;4.640;2024-02-26T01:41:13;1.95;;;0.80;;
20697;SDS011;10508;50.956;4.640;2024-02-26T01:43:40;2.42;;;1.00;;
20697;SDS011;10508;50.956;4.640;2024-02-26T01:46:09;2.28;;;0.60;;
20697;SDS011;10508;50.956;4.640;2024-02-26T01:48:42;2.90;;;0.80;;
20697;SDS011;10508;50.956;4.640;2024-02-26T01:51:12;1.13;;;0.70;;
20697;SDS011;10508;50.956;4.640;2024-02-26T01:53:42;1.10;;;0.70;;
20697;SDS011;10508;50.956;4.640;2024-02-26T01:56:11;1.80;;;0.70;;
20697;SDS011;10508;50.956;4.640;2024-02-26T01:58:38;3.83;;;1.17;;
20697;SDS011;10508;50.956;4.640;2024-02-26T02:01:04;0.82;;;0.75;;
20697;SDS011;10508;50.956;4.640;2024-02-26T02:03:31;1.80;;;0.80;;
20697;SDS011;10508;50.956;4.640;2024-02-26T02:05:57;0.82;;;0.70;;
20697;SDS011;10508;50.956;4.640;2024-02-26T02:08:24;2.08;;;0.90;;
20697;SDS011;10508;50.956;4.640;2024-02-26T02:10:50;2.45;;;0.90;;
20697;SDS011;10508;50.956;4.640;2024-02-26T02:13:17;2.28;;;0.70;;
20697;SDS011;10508;50.956;4.640;2024-02-26T02:15:43;2.85;;;0.82;;
20697;SDS011;10508;50.956;4.640;2024-02-26T02:18:09;2.00;;;0.82;;
20697;SDS011;10508;50.956;4.640;2024-02-26T02:20:36;2.35;;;0.65;;
20697;SDS011;10508;50.956;4.640;2024-02-26T02:23:03;1.30;;;0.80;;
20697;SDS011;10508;50.956;4.640;2024-02-26T02:25:29;1.92;;;0.80;;
20697;SDS011;10508;50.956;4.640;2024-02-26T02:27:54;1.08;;;0.80;;
20697;SDS011;10508;50.956;4.640;2024-02-26T02:30:22;1.13;;;0.70;;
20697;SDS011;10508;50.956;4.640;2024-02-26T02:32:50;1.90;;;0.90;;
20697;SDS011;10508;50.956;4.640;2024-02-26T02:35:16;3.50;;;0.70;;
20697;SDS011;10508;50.956;4.640;2024-02-26T02:37:42;2.13;;;0.70;;
20697;SDS011;10508;50.956;4.640;2024-02-26T02:40:07;1.27;;;0.75;;
20697;SDS011;10508;50.956;4.640;2024-02-26T02:42:33;4.95;;;0.77;;
20697;SDS011;10508;50.956;4.640;2024-02-26T02:44:59;2.30;;;0.90;;
20697;SDS011;10508;50.956;4.640;2024-02-26T02:47:24;1.77;;;0.80;;
20697;SDS011;10508;50.956;4.640;2024-02-26T02:49:50;1.80;;;0.75;;
20697;SDS011;10508;50.956;4.640;2024-02-26T02:52:16;2.80;;;0.70;;
20697;SDS011;10508;50.956;4.640;2024-02-26T02:54:41;1.58;;;0.80;;
20697;SDS011;10508;50.956;4.640;2024-02-26T02:57:10;1.92;;;1.20;;
20697;SDS011;10508;50.956;4.640;2024-02-26T02:59:37;3.78;;;0.93;;
20697;SDS011;10508;50.956;4.640;2024-02-26T03:02:03;1.30;;;0.88;;
20697;SDS011;10508;50.956;4.640;2024-02-26T03:04:28;2.53;;;1.13;;
20697;SDS011;10508;50.956;4.640;2024-02-26T03:06:54;3.60;;;1.40;;
20697;SDS011;10508;50.956;4.640;2024-02-26T03:09:20;2.30;;;1.30;;
20697;SDS011;10508;50.956;4.640;2024-02-26T03:11:46;3.78;;;1.25;;
20697;SDS011;10508;50.956;4.640;2024-02-26T03:14:11;4.75;;;1.35;;
20697;SDS011;10508;50.956;4.640;2024-02-26T03:16:37;3.47;;;1.00;;
20697;SDS011;10508;50.956;4.640;2024-02-26T03:19:03;1.98;;;1.25;;
20697;SDS011;10508;50.956;4.640;2024-02-26T03:21:28;1.42;;;1.10;;
20697;SDS011;10508;50.956;4.640;2024-02-26T03:23:54;3.45;;;1.65;;
20697;SDS011;10508;50.956;4.640;2024-02-26T03:26:20;2.05;;;1.40;;
20697;SDS011;10508;50.956;4.640;2024-02-26T03:28:46;3.45;;;1.80;;
20697;SDS011;10508;50.956;4.640;2024-02-26T03:31:12;3.92;;;1.58;;
20697;SDS011;10508;50.956;4.640;2024-02-26T03:33:39;3.80;;;1.85;;
20697;SDS011;10508;50.956;4.640;2024-02-26T03:36:07;3.63;;;2.00;;
20697;SDS011;10508;50.956;4.640;2024-02-26T03:38:33;3.42;;;2.00;;
20697;SDS011;10508;50.956;4.640;2024-02-26T03:40:59;2.35;;;1.83;;
20697;SDS011;10508;50.956;4.640;2024-02-26T03:43:24;5.50;;;2.40;;
20697;SDS011;10508;50.956;4.640;2024-02-26T03:45:50;3.10;;;2.03;;
20697;SDS011;10508;50.956;4.640;2024-02-26T03:48:16;4.07;;;2.20;;
20697;SDS011;10508;50.956;4.640;2024-02-26T03:50:41;5.25;;;2.13;;
20697;SDS011;10508;50.956;4.640;2024-02-26T03:53:07;4.88;;;2.83;;
20697;SDS011;10508;50.956;4.640;2024-02-26T03:55:34;4.95;;;2.58;;
20697;SDS011;10508;50.956;4.640;2024-02-26T03:58:00;5.80;;;2.33;;
20697;SDS011;10508;50.956;4.640;2024-02-26T04:00:25;3.28;;;2.30;;
20697;SDS011;10508;50.956;4.640;2024-02-26T04:02:54;3.83;;;2.30;;
20697;SDS011;10508;50.956;4.640;2024-02-26T04:05:20;4.60;;;2.45;;
20697;SDS011;10508;50.956;4.640;2024-02-26T04:07:46;4.28;;;2.42;;
20697;SDS011;10508;50.956;4.640;2024-02-26T04:10:11;3.42;;;2.15;;
20697;SDS011;10508;50.956;4.640;2024-02-26T04:12:38;4.55;;;2.42;;
20697;SDS011;10508;50.956;4.640;2024-02-26T04:15:05;3.58;;;2.20;;
20697;SDS011;10508;50.956;4.640;2024-02-26T04:17:32;4.47;;;2.30;;
20697;SDS011;10508;50.956;4.640;2024-02-26T04:19:57;3.95;;;2.53;;
20697;SDS011;10508;50.956;4.640;2024-02-26T04:22:23;4.65;;;2.70;;
20697;SDS011;10508;50.956;4.640;2024-02-26T04:24:49;4.47;;;2.47;;
20697;SDS011;10508;50.956;4.640;2024-02-26T04:27:14;3.22;;;2.30;;
20697;SDS011;10508;50.956;4.640;2024-02-26T04:29:40;4.47;;;2.50;;
20697;SDS011;10508;50.956;4.640;2024-02-26T04:32:06;4.88;;;2.70;;
20697;SDS011;10508;50.956;4.640;2024-02-26T04:34:31;9.90;;;2.70;;
20697;SDS011;10508;50.956;4.640;2024-02-26T04:36:57;5.53;;;3.15;;
20697;SDS011;10508;50.956;4.640;2024-02-26T04:39:23;3.83;;;2.60;;
20697;SDS011;10508;50.956;4.640;2024-02-26T04:41:49;7.65;;;3.25;;
20697;SDS011;10508;50.956;4.640;2024-02-26T04:44:14;8.68;;;3.08;;
20697;SDS011;10508;50.956;4.640;2024-02-26T04:46:40;5.93;;;3.08;;
20697;SDS011;10508;50.956;4.640;2024-02-26T04:49:06;6.00;;;3.15;;
20697;SDS011;10508;50.956;4.640;2024-02-26T04:51:32;6.63;;;4.00;;
20697;SDS011;10508;50.956;4.640;2024-02-26T04:53:57;9.65;;;3.67;;
20697;SDS011;10508;50.956;4.640;2024-02-26T04:56:23;7.75;;;4.13;;
20697;SDS011;10508;50.956;4.640;2024-02-26T04:58:49;7.18;;;4.47;;
20697;SDS011;10508;50.956;4.640;2024-02-26T05:01:15;9.38;;;5.10;;
20697;SDS011;10508;50.956;4.640;2024-02-26T05:03:42;13.18;;;5.53;;
20697;SDS011;10508;50.956;4.640;2024-02-26T05:06:08;11.27;;;5.32;;
20697;SDS011;10508;50.956;4.640;2024-02-26T05:08:34;12.70;;;5.65;;
20697;SDS011;10508;50.956;4.640;2024-02-26T05:11:03;10.45;;;5.60;;
20697;SDS011;10508;50.956;4.640;2024-02-26T05:13:30;14.55;;;5.80;;
20697;SDS011;10508;50.956;4.640;2024-02-26T05:15:56;12.60;;;6.30;;
20697;SDS011;10508;50.956;4.640;2024-02-26T05:18:22;11.20;;;6.28;;
20697;SDS011;10508;50.956;4.640;2024-02-26T05:20:48;9.32;;;5.80;;
20697;SDS011;10508;50.956;4.640;2024-02-26T05:23:14;9.35;;;5.47;;
20697;SDS011;10508;50.956;4.640;2024-02-26T05:25:40;11.07;;;5.50;;
20697;SDS011;10508;50.956;4.640;2024-02-26T05:28:25;9.80;;;5.78;;
20697;SDS011;10508;50.956;4.640;2024-02-26T05:30:51;10.05;;;5.80;;
20697;SDS011;10508;50.956;4.640;2024-02-26T05:33:16;9.80;;;5.18;;
20697;SDS011;10508;50.956;4.640;2024-02-26T05:35:42;8.57;;;5.82;;
20697;SDS011;10508;50.956;4.640;2024-02-26T05:38:08;7.25;;;5.15;;
20697;SDS011;10508;50.956;4.640;2024-02-26T05:40:35;10.25;;;5.30;;
20697;SDS011;10508;50.956;4.640;2024-02-26T05:43:00;7.97;;;4.60;;
20697;SDS011;10508;50.956;4.640;2024-02-26T05:45:26;7.82;;;5.35;;
20697;SDS011;10508;50.956;4.640;2024-02-26T05:47:52;8.18;;;5.18;;
20697;SDS011;10508;50.956;4.640;2024-02-26T05:50:17;10.48;;;5.65;;
20697;SDS011;10508;50.956;4.640;2024-02-26T05:52:45;10.32;;;5.80;;
20697;SDS011;10508;50.956;4.640;2024-02-26T05:55:11;9.10;;;5.82;;
20697;SDS011;10508;50.956;4.640;2024-02-26T05:57:37;8.95;;;5.03;;
20697;SDS011;10508;50.956;4.640;2024-02-26T06:00:03;9.45;;;5.13;;
20697;SDS011;10508;50.956;4.640;2024-02-26T06:02:30;9.43;;;5.32;;
20697;SDS011;10508;50.956;4.640;2024-02-26T06:04:56;8.43;;;5.00;;
20697;SDS011;10508;50.956;4.640;2024-02-26T06:07:23;10.38;;;5.72;;
20697;SDS011;10508;50.956;4.640;2024-02-26T06:09:48;10.60;;;5.10;;
20697;SDS011;10508;50.956;4.640;2024-02-26T06:12:14;10.50;;;5.70;;
20697;SDS011;10508;50.956;4.640;2024-02-26T06:14:41;11.18;;;5.82;;
20697;SDS011;10508;50.956;4.640;2024-02-26T06:17:07;9.20;;;5.60;;
20697;SDS011;10508;50.956;4.640;2024-02-26T06:19:33;8.82;;;6.22;;
20697;SDS011;10508;50.956;4.640;2024-02-26T06:21:59;7.82;;;5.20;;
20697;SDS011;10508;50.956;4.640;2024-02-26T06:24:24;9.80;;;5.93;;
20697;SDS011;10508;50.956;4.640;2024-02-26T06:26:50;11.13;;;5.72;;
20697;SDS011;10508;50.956;4.640;2024-02-26T06:29:16;12.32;;;6.53;;
20697;SDS011;10508;50.956;4.640;2024-02-26T06:31:41;10.00;;;5.93;;
20697;SDS011;10508;50.956;4.640;2024-02-26T06:34:08;8.45;;;5.70;;
20697;SDS011;10508;50.956;4.640;2024-02-26T06:36:33;15.40;;;6.45;;
20697;SDS011;10508;50.956;4.640;2024-02-26T06:38:59;8.82;;;6.13;;
20697;SDS011;10508;50.956;4.640;2024-02-26T06:41:25;13.68;;;6.70;;
20697;SDS011;10508;50.956;4.640;2024-02-26T06:43:55;8.65;;;5.85;;
20697;SDS011;10508;50.956;4.640;2024-02-26T06:46:22;9.85;;;6.60;;
20697;SDS011;10508;50.956;4.640;2024-02-26T06:48:48;9.13;;;6.35;;
20697;SDS011;10508;50.956;4.640;2024-02-26T06:51:14;10.15;;;6.95;;
20697;SDS011;10508;50.956;4.640;2024-02-26T06:53:40;10.80;;;6.50;;
20697;SDS011;10508;50.956;4.640;2024-02-26T06:56:06;9.55;;;6.82;;
20697;SDS011;10508;50.956;4.640;2024-02-26T06:58:31;10.85;;;6.90;;
20697;SDS011;10508;50.956;4.640;2024-02-26T07:00:57;9.95;;;6.97;;
20697;SDS011;10508;50.956;4.640;2024-02-26T07:03:23;12.38;;;7.25;;
20697;SDS011;10508;50.956;4.640;2024-02-26T07:05:50;12.20;;;7.47;;
20697;SDS011;10508;50.956;4.640;2024-02-26T07:08:16;11.02;;;7.30;;
20697;SDS011;10508;50.956;4.640;2024-02-26T07:10:42;10.05;;;6.45;;
20697;SDS011;10508;50.956;4.640;2024-02-26T07:13:08;12.20;;;7.43;;
20697;SDS011;10508;50.956;4.640;2024-02-26T07:15:35;8.70;;;6.22;;
20697;SDS011;10508;50.956;4.640;2024-02-26T07:18:02;10.88;;;7.18;;
20697;SDS011;10508;50.956;4.640;2024-02-26T07:20:29;9.77;;;6.63;;
20697;SDS011;10508;50.956;4.640;2024-02-26T07:22:56;11.40;;;6.93;;
20697;SDS011;10508;50.956;4.640;2024-02-26T07:25:22;12.07;;;6.80;;
20697;SDS011;10508;50.956;4.640;2024-02-26T07:27:50;9.65;;;6.82;;
20697;SDS011;10508;50.956;4.640;2024-02-26T07:30:15;12.10;;;6.50;;
20697;SDS011;10508;50.956;4.640;2024-02-26T07:32:42;12.52;;;6.47;;
20697;SDS011;10508;50.956;4.640;2024-02-26T07:35:08;11.05;;;6.80;;
20697;SDS011;10508;50.956;4.640;2024-02-26T07:37:34;9.90;;;6.85;;
20697;SDS011;10508;50.956;4.640;2024-02-26T07:40:00;11.18;;;6.63;;
20697;SDS011;10508;50.956;4.640;2024-02-26T07:42:26;10.93;;;6.53;;
20697;SDS011;10508;50.956;4.640;2024-02-26T07:44:52;9.60;;;6.43;;
20697;SDS011;10508;50.956;4.640;2024-02-26T07:47:18;9.45;;;6.07;;
20697;SDS011;10508;50.956;4.640;2024-02-26T07:49:44;11.52;;;6.93;;
20697;SDS011;10508;50.956;4.640;2024-02-26T07:52:10;8.55;;;5.85;;
20697;SDS011;10508;50.956;4.640;2024-02-26T07:54:35;9.98;;;6.53;;
20697;SDS011;10508;50.956;4.640;2024-02-26T07:57:01;11.60;;;7.05;;
20697;SDS011;10508;50.956;4.640;2024-02-26T07:59:30;8.82;;;6.25;;
20697;SDS011;10508;50.956;4.640;2024-02-26T08:01:56;11.30;;;6.07;;
20697;SDS011;10508;50.956;4.640;2024-02-26T08:04:22;11.27;;;6.63;;
20697;SDS011;10508;50.956;4.640;2024-02-26T08:06:47;9.52;;;6.47;;
20697;SDS011;10508;50.956;4.640;2024-02-26T08:09:13;9.77;;;6.07;;
20697;SDS011;10508;50.956;4.640;2024-02-26T08:11:39;9.05;;;6.13;;
20697;SDS011;10508;50.956;4.640;2024-02-26T08:14:04;9.15;;;6.32;;
20697;SDS011;10508;50.956;4.640;2024-02-26T08:16:30;9.93;;;6.22;;
20697;SDS011;10508;50.956;4.640;2024-02-26T08:18:56;11.90;;;6.68;;
20697;SDS011;10508;50.956;4.640;2024-02-26T08:21:21;10.05;;;6.28;;
20697;SDS011;10508;50.956;4.640;2024-02-26T08:23:48;10.52;;;6.60;;
20697;SDS011;10508;50.956;4.640;2024-02-26T08:26:14;10.68;;;6.60;;
20697;SDS011;10508;50.956;4.640;2024-02-26T08:28:40;8.35;;;5.97;;
20697;SDS011;10508;50.956;4.640;2024-02-26T08:31:05;9.93;;;6.35;;
20697;SDS011;10508;50.956;4.640;2024-02-26T08:33:31;9.02;;;6.47;;
20697;SDS011;10508;50.956;4.640;2024-02-26T08:35:59;12.05;;;6.65;;
20697;SDS011;10508;50.956;4.640;2024-02-26T08:38:24;10.25;;;6.03;;
20697;SDS011;10508;50.956;4.640;2024-02-26T08:40:50;11.80;;;6.43;;
20697;SDS011;10508;50.956;4.640;2024-02-26T08:43:15;9.32;;;6.20;;
20697;SDS011;10508;50.956;4.640;2024-02-26T08:45:41;12.27;;;6.45;;
20697;SDS011;10508;50.956;4.640;2024-02-26T08:48:07;10.15;;;6.60;;
20697;SDS011;10508;50.956;4.640;2024-02-26T08:50:32;11.85;;;6.97;;
20697;SDS011;10508;50.956;4.640;2024-02-26T08:52:58;10.88;;;6.32;;
20697;SDS011;10508;50.956;4.640;2024-02-26T08:55:26;9.88;;;6.38;;
20697;SDS011;10508;50.956;4.640;2024-02-26T08:57:51;9.98;;;5.95;;
20697;SDS011;10508;50.956;4.640;2024-02-26T09:00:17;8.25;;;6.00;;
20697;SDS011;10508;50.956;4.640;2024-02-26T09:02:45;10.60;;;6.07;;
20697;SDS011;10508;50.956;4.640;2024-02-26T09:05:12;9.80;;;6.00;;
20697;SDS011;10508;50.956;4.640;2024-02-26T09:07:38;8.07;;;5.72;;
20697;SDS011;10508;50.956;4.640;2024-02-26T09:10:04;9.20;;;5.60;;
20697;SDS011;10508;50.956;4.640;2024-02-26T09:12:31;11.35;;;6.07;;
20697;SDS011;10508;50.956;4.640;2024-02-26T09:14:56;9.18;;;6.30;;
20697;SDS011;10508;50.956;4.640;2024-02-26T09:17:22;9.95;;;6.03;;
20697;SDS011;10508;50.956;4.640;2024-02-26T09:19:48;10.90;;;6.13;;
20697;SDS011;10508;50.956;4.640;2024-02-26T09:22:14;10.57;;;6.18;;
20697;SDS011;10508;50.956;4.640;2024-02-26T09:24:40;7.97;;;5.80;;
20697;SDS011;10508;50.956;4.640;2024-02-26T09:27:05;10.35;;;6.60;;
20697;SDS011;10508;50.956;4.640;2024-02-26T09:29:31;8.30;;;6.00;;
20697;SDS011;10508;50.956;4.640;2024-02-26T09:31:58;9.82;;;6.05;;
20697;SDS011;10508;50.956;4.640;2024-02-26T09:34:23;9.55;;;6.38;;
20697;SDS011;10508;50.956;4.640;2024-02-26T09:36:49;10.25;;;6.85;;
20697;SDS011;10508;50.956;4.640;2024-02-26T09:39:15;10.07;;;6.30;;
20697;SDS011;10508;50.956;4.640;2024-02-26T09:41:45;8.70;;;6.05;;
20697;SDS011;10508;50.956;4.640;2024-02-26T09:44:11;7.93;;;5.57;;
20697;SDS011;10508;50.956;4.640;2024-02-26T09:46:40;7.93;;;5.65;;
20697;SDS011;10508;50.956;4.640;2024-02-26T09:49:06;9.25;;;6.00;;
20697;SDS011;10508;50.956;4.640;2024-02-26T09:51:33;8.68;;;5.38;;
20697;SDS011;10508;50.956;4.640;2024-02-26T09:53:59;9.13;;;5.68;;
20697;SDS011;10508;50.956;4.640;2024-02-26T09:56:26;8.88;;;6.00;;
20697;SDS011;10508;50.956;4.640;2024-02-26T09:58:53;8.77;;;5.55;;
20697;SDS011;10508;50.956;4.640;2024-02-26T10:01:19;9.40;;;5.85;;
20697;SDS011;10508;50.956;4.640;2024-02-26T10:03:47;7.97;;;4.70;;
20697;SDS011;10508;50.956;4.640;2024-02-26T10:06:16;9.93;;;5.90;;
20697;SDS011;10508;50.956;4.640;2024-02-26T10:08:43;10.27;;;5.85;;
20697;SDS011;10508;50.956;4.640;2024-02-26T10:11:09;8.52;;;5.47;;
20697;SDS011;10508;50.956;4.640;2024-02-26T10:13:35;8.80;;;5.78;;
20697;SDS011;10508;50.956;4.640;2024-02-26T10:16:02;10.32;;;5.97;;
20697;SDS011;10508;50.956;4.640;2024-02-26T10:21:15;7.25;;;4.53;;
20697;SDS011;10508;50.956;4.640;2024-02-26T10:23:43;8.25;;;4.88;;
20697;SDS011;10508;50.956;4.640;2024-02-26T10:26:10;8.07;;;4.65;;
20697;SDS011;10508;50.956;4.640;2024-02-26T10:28:37;7.03;;;5.07;;
20697;SDS011;10508;50.956;4.640;2024-02-26T10:31:04;6.50;;;4.53;;
20697;SDS011;10508;50.956;4.640;2024-02-26T10:33:33;5.30;;;3.85;;
20697;SDS011;10508;50.956;4.640;2024-02-26T10:36:03;9.32;;;4.50;;
20697;SDS011;10508;50.956;4.640;2024-02-26T10:38:30;9.13;;;4.28;;
20697;SDS011;10508;50.956;4.640;2024-02-26T10:40:56;5.18;;;3.88;;
20697;SDS011;10508;50.956;4.640;2024-02-26T10:43:22;6.20;;;4.13;;
20697;SDS011;10508;50.956;4.640;2024-02-26T10:45:48;5.30;;;3.75;;
20697;SDS011;10508;50.956;4.640;2024-02-26T10:48:15;5.13;;;3.60;;
20697;SDS011;10508;50.956;4.640;2024-02-26T10:50:42;4.85;;;3.28;;
20697;SDS011;10508;50.956;4.640;2024-02-26T10:53:17;7.10;;;3.95;;
20697;SDS011;10508;50.956;4.640;2024-02-26T10:55:47;5.40;;;3.47;;
20697;SDS011;10508;50.956;4.640;2024-02-26T10:58:17;6.28;;;3.22;;
20697;SDS011;10508;50.956;4.640;2024-02-26T11:00:45;7.75;;;3.28;;
20697;SDS011;10508;50.956;4.640;2024-02-26T11:03:12;5.63;;;3.30;;
20697;SDS011;10508;50.956;4.640;2024-02-26T11:05:42;5.45;;;3.53;;
20697;SDS011;10508;50.956;4.640;2024-02-26T11:08:09;4.72;;;3.38;;
20697;SDS011;10508;50.956;4.640;2024-02-26T11:10:36;5.60;;;3.13;;
20697;SDS011;10508;50.956;4.640;2024-02-26T11:13:03;5.18;;;3.00;;
20697;SDS011;10508;50.956;4.640;2024-02-26T11:15:31;5.00;;;3.22;;
20697;SDS011;10508;50.956;4.640;2024-02-26T11:17:58;3.58;;;2.60;;
20697;SDS011;10508;50.956;4.640;2024-02-26T11:20:27;4.65;;;2.95;;
20697;SDS011;10508;50.956;4.640;2024-02-26T11:22:54;4.57;;;2.90;;
20697;SDS011;10508;50.956;4.640;2024-02-26T11:25:20;4.65;;;3.05;;
20697;SDS011;10508;50.956;4.640;2024-02-26T11:27:48;4.30;;;2.85;;
20697;SDS011;10508;50.956;4.640;2024-02-26T11:30:16;3.85;;;2.80;;
20697;SDS011;10508;50.956;4.640;2024-02-26T11:32:44;5.90;;;3.08;;
20697;SDS011;10508;50.956;4.640;2024-02-26T11:35:11;6.68;;;2.90;;
20697;SDS011;10508;50.956;4.640;2024-02-26T11:37:40;6.55;;;2.50;;
20697;SDS011;10508;50.956;4.640;2024-02-26T11:40:12;4.95;;;3.47;;
20697;SDS011;10508;50.956;4.640;2024-02-26T11:42:45;5.25;;;3.03;;
20697;SDS011;10508;50.956;4.640;2024-02-26T11:48:03;4.28;;;2.97;;
20697;SDS011;10508;50.956;4.640;2024-02-26T11:50:35;4.00;;;2.72;;
20697;SDS011;10508;50.956;4.640;2024-02-26T11:56:32;3.55;;;2.80;;
20697;SDS011;10508;50.956;4.640;2024-02-26T11:58:58;5.63;;;3.20;;
20697;SDS011;10508;50.956;4.640;2024-02-26T12:01:44;5.80;;;3.88;;
20697;SDS011;10508;50.956;4.640;2024-02-26T12:04:14;5.30;;;3.35;;
20697;SDS011;10508;50.956;4.640;2024-02-26T12:06:44;3.72;;;2.83;;
20697;SDS011;10508;50.956;4.640;2024-02-26T12:09:12;4.32;;;3.00;;
20697;SDS011;10508;50.956;4.640;2024-02-26T12:11:39;4.72;;;3.05;;
20697;SDS011;10508;50.956;4.640;2024-02-26T12:14:07;4.32;;;3.05;;
20697;SDS011;10508;50.956;4.640;2024-02-26T12:16:38;3.75;;;2.70;;
20697;SDS011;10508;50.956;4.640;2024-02-26T12:19:06;4.70;;;3.22;;
20697;SDS011;10508;50.956;4.640;2024-02-26T12:21:34;4.53;;;3.20;;
20697;SDS011;10508;50.956;4.640;2024-02-26T12:24:10;4.50;;;2.95;;
20697;SDS011;10508;50.956;4.640;2024-02-26T12:26:38;3.70;;;2.80;;
20697;SDS011;10508;50.956;4.640;2024-02-26T12:29:04;4.47;;;2.75;;
20697;SDS011;10508;50.956;4.640;2024-02-26T12:31:31;4.47;;;2.92;;
20697;SDS011;10508;50.956;4.640;2024-02-26T12:33:58;4.47;;;2.80;;
20697;SDS011;10508;50.956;4.640;2024-02-26T12:36:24;5.70;;;2.85;;
20697;SDS011;10508;50.956;4.640;2024-02-26T12:38:50;4.43;;;3.03;;
20697;SDS011;10508;50.956;4.640;2024-02-26T12:41:21;3.88;;;2.42;;
20697;SDS011;10508;50.956;4.640;2024-02-26T12:43:48;4.82;;;2.78;;
20697;SDS011;10508;50.956;4.640;2024-02-26T12:46:14;5.68;;;2.97;;
20697;SDS011;10508;50.956;4.640;2024-02-26T12:48:43;5.78;;;3.55;;
20697;SDS011;10508;50.956;4.640;2024-02-26T12:51:12;5.85;;;3.72;;
20697;SDS011;10508;50.956;4.640;2024-02-26T12:53:40;5.57;;;3.72;;
20697;SDS011;10508;50.956;4.640;2024-02-26T12:56:09;5.53;;;3.67;;
20697;SDS011;10508;50.956;4.640;2024-02-26T12:58:39;7.32;;;4.65;;
20697;SDS011;10508;50.956;4.640;2024-02-26T13:01:06;5.20;;;3.55;;
20697;SDS011;10508;50.956;4.640;2024-02-26T13:03:39;6.00;;;3.88;;
20697;SDS011;10508;50.956;4.640;2024-02-26T13:06:05;6.88;;;4.28;;
20697;SDS011;10508;50.956;4.640;2024-02-26T13:08:31;7.30;;;4.57;;
20697;SDS011;10508;50.956;4.640;2024-02-26T13:10:58;6.43;;;4.00;;
20697;SDS011;10508;50.956;4.640;2024-02-26T13:13:24;6.72;;;4.15;;
20697;SDS011;10508;50.956;4.640;2024-02-26T13:16:00;6.10;;;4.47;;
20697;SDS011;10508;50.956;4.640;2024-02-26T13:18:27;7.25;;;4.72;;
20697;SDS011;10508;50.956;4.640;2024-02-26T13:21:05;6.50;;;4.45;;
20697;SDS011;10508;50.956;4.640;2024-02-26T13:23:34;11.35;;;4.38;;
20697;SDS011;10508;50.956;4.640;2024-02-26T13:26:00;7.82;;;5.00;;
20697;SDS011;10508;50.956;4.640;2024-02-26T13:28:25;8.48;;;5.10;;
20697;SDS011;10508;50.956;4.640;2024-02-26T13:30:56;8.35;;;5.30;;
20697;SDS011;10508;50.956;4.640;2024-02-26T13:33:22;7.78;;;5.03;;
20697;SDS011;10508;50.956;4.640;2024-02-26T13:35:49;9.75;;;5.65;;
20697;SDS011;10508;50.956;4.640;2024-02-26T13:38:15;10.23;;;5.90;;
20697;SDS011;10508;50.956;4.640;2024-02-26T13:40:42;9.57;;;5.55;;
20697;SDS011;10508;50.956;4.640;2024-02-26T13:43:07;10.35;;;6.18;;
20697;SDS011;10508;50.956;4.640;2024-02-26T13:45:34;9.10;;;5.65;;
20697;SDS011;10508;50.956;4.640;2024-02-26T13:48:01;11.63;;;6.82;;
20697;SDS011;10508;50.956;4.640;2024-02-26T13:50:28;10.52;;;6.38;;
20697;SDS011;10508;50.956;4.640;2024-02-26T13:52:55;11.65;;;6.78;;
20697;SDS011;10508;50.956;4.640;2024-02-26T13:55:36;9.52;;;5.68;;
20697;SDS011;10508;50.956;4.640;2024-02-26T13:58:02;8.05;;;5.05;;
20697;SDS011;10508;50.956;4.640;2024-02-26T14:00:29;11.13;;;6.60;;
20697;SDS011;10508;50.956;4.640;2024-02-26T14:02:59;11.30;;;6.53;;
20697;SDS011;10508;50.956;4.640;2024-02-26T14:05:26;10.50;;;5.82;;
20697;SDS011;10508;50.956;4.640;2024-02-26T14:07:52;10.73;;;6.10;;
20697;SDS011;10508;50.956;4.640;2024-02-26T14:10:18;10.48;;;6.13;;
20697;SDS011;10508;50.956;4.640;2024-02-26T14:12:43;12.00;;;6.20;;
20697;SDS011;10508;50.956;4.640;2024-02-26T14:15:13;11.52;;;6.53;;
20697;SDS011;10508;50.956;4.640;2024-02-26T14:17:39;10.27;;;5.75;;
20697;SDS011;10508;50.956;4.640;2024-02-26T14:20:05;10.98;;;6.15;;
20697;SDS011;10508;50.956;4.640;2024-02-26T14:22:32;13.35;;;6.47;;
20697;SDS011;10508;50.956;4.640;2024-02-26T14:24:58;11.18;;;6.40;;
20697;SDS011;10508;50.956;4.640;2024-02-26T14:27:24;10.90;;;5.93;;
20697;SDS011;10508;50.956;4.640;2024-02-26T14:29:50;10.43;;;5.80;;
20697;SDS011;10508;50.956;4.640;2024-02-26T14:32:16;10.80;;;6.20;;
20697;SDS011;10508;50.956;4.640;2024-02-26T14:34:42;13.93;;;6.07;;
20697;SDS011;10508;50.956;4.640;2024-02-26T14:37:08;12.20;;;6.65;;
20697;SDS011;10508;50.956;4.640;2024-02-26T14:39:37;10.48;;;6.03;;
20697;SDS011;10508;50.956;4.640;2024-02-26T14:42:04;11.40;;;6.35;;
20697;SDS011;10508;50.956;4.640;2024-02-26T14:44:31;10.63;;;5.90;;
20697;SDS011;10508;50.956;4.640;2024-02-26T14:46:58;10.32;;;5.90;;
20697;SDS011;10508;50.956;4.640;2024-02-26T14:49:25;10.13;;;5.88;;
20697;SDS011;10508;50.956;4.640;2024-02-26T14:51:54;12.27;;;6.30;;